TAF KRBG
AMD KRBG 080300Z 0803/0824 VRB03KT P6SM OVC004 FM080700 VRB02KT 5SM -RADZ BR BKN003 OVC005 FM082000 35004KT P6SM SCT007 BKN020=
METAR KRBG
WC KRBG
WS KRBG
WV KRBG